Time;durP1;ratioP1;P1;durP2;ratioP2;P2;SDS_P1;SDS_P2;PMS_P1;PMS_P2;Temp;Humidity;BMP_temperature;BMP_pressure;BME280_temperature;BME280_humidity;BME280_pressure;Samples;Min_cycle;Max_cycle;Signal;HPM_P1;HPM_P2
2023/10/24 00:00:49;;;;;;;17.62;11.15;;;;;;;10.99;100.00;100112.41;5588921;31;34733;-69
2023/10/24 00:03:52;;;;;;;17.45;10.13;;;;;;;11.04;100.00;100121.47;5587405;31;34977;-69
2023/10/24 00:06:55;;;;;;;17.92;10.70;;;;;;;11.08;100.00;100122.78;5588766;31;34106;-69
2023/10/24 00:09:58;;;;;;;16.55;10.23;;;;;;;11.19;100.00;100125.00;5588631;31;34072;-69
2023/10/24 00:13:02;;;;;;;19.25;10.48;;;;;;;11.36;100.00;100115.09;5588659;31;34770;-69
2023/10/24 00:16:04;;;;;;;17.20;10.50;;;;;;;11.43;100.00;100109.88;5588650;31;34799;-69
2023/10/24 00:19:07;;;;;;;17.90;10.10;;;;;;;11.43;100.00;100109.88;5588749;31;34755;-69
2023/10/24 00:22:10;;;;;;;17.08;10.02;;;;;;;11.33;100.00;100118.06;5575347;31;34103;-69
2023/10/24 00:25:14;;;;;;;18.40;9.80;;;;;;;11.29;100.00;100100.84;5588443;31;34723;-69
2023/10/24 00:28:17;;;;;;;14.30;10.00;;;;;;;11.21;100.00;100096.44;5588419;31;34062;-69
2023/10/24 00:31:19;;;;;;;16.02;10.40;;;;;;;11.25;100.00;100091.59;5588306;31;34197;-69
2023/10/24 00:34:23;;;;;;;17.67;9.95;;;;;;;11.14;100.00;100084.06;5588158;31;34237;-69
2023/10/24 00:37:26;;;;;;;17.45;9.70;;;;;;;11.11;100.00;100066.66;5588229;31;34019;-69
2023/10/24 00:40:31;;;;;;;19.75;9.82;;;;;;;11.15;100.00;100062.66;5588201;31;34130;-69
2023/10/24 00:43:34;;;;;;;15.70;10.18;;;;;;;11.16;100.00;100047.53;5588418;31;34715;-69
2023/10/24 00:46:39;;;;;;;14.15;9.60;;;;;;;11.15;100.00;100038.75;5587911;31;33967;-69
2023/10/24 00:49:42;;;;;;;17.15;9.55;;;;;;;11.07;100.00;100035.34;5588040;31;34083;-69
2023/10/24 00:52:46;;;;;;;16.80;9.82;;;;;;;10.99;100.00;100038.09;5587168;31;34295;-69
2023/10/24 00:55:50;;;;;;;17.60;9.07;;;;;;;11.00;100.00;100045.00;5587802;31;34717;-69
2023/10/24 00:58:54;;;;;;;18.48;9.48;;;;;;;10.97;100.00;100040.91;5587865;31;34028;-69
2023/10/24 01:01:58;;;;;;;16.17;9.82;;;;;;;10.95;100.00;100052.69;5587886;31;34145;-69
2023/10/24 01:05:02;;;;;;;15.77;9.27;;;;;;;10.95;100.00;100060.66;5587590;31;34283;-69
2023/10/24 01:08:05;;;;;;;12.63;8.75;;;;;;;10.84;100.00;100057.41;5586908;31;33992;-69
2023/10/24 01:11:08;;;;;;;15.93;9.82;;;;;;;10.78;100.00;100060.78;5587649;31;34631;-69
2023/10/24 01:14:11;;;;;;;15.25;9.68;;;;;;;10.77;100.00;100079.53;5589006;31;33932;-69
2023/10/24 01:17:14;;;;;;;15.05;9.07;;;;;;;10.83;100.00;100095.59;5590476;31;34033;-69
2023/10/24 01:20:17;;;;;;;15.55;9.35;;;;;;;10.93;100.00;100086.56;5590414;31;34103;-69
2023/10/24 01:23:21;;;;;;;13.93;8.68;;;;;;;10.95;100.00;100085.38;5590347;31;34173;-69
2023/10/24 01:26:26;;;;;;;14.93;9.02;;;;;;;10.87;100.00;100088.09;5590701;31;34474;-69
2023/10/24 01:29:30;;;;;;;12.73;8.75;;;;;;;10.81;100.00;100094.91;5590357;31;34246;-69
2023/10/24 01:32:32;;;;;;;15.82;9.48;;;;;;;10.72;100.00;100085.38;5590276;31;34224;-69
2023/10/24 01:35:36;;;;;;;13.48;8.73;;;;;;;10.69;100.00;100072.47;5590075;31;34240;-69
2023/10/24 01:38:38;;;;;;;16.65;9.07;;;;;;;10.65;100.00;100062.38;5590568;31;34046;-69
2023/10/24 01:41:42;;;;;;;20.50;10.30;;;;;;;10.62;100.00;100062.72;5590078;31;34810;-69
2023/10/24 01:44:45;;;;;;;14.55;9.07;;;;;;;10.59;100.00;100061.25;5589892;31;34219;-70
2023/10/24 01:47:48;;;;;;;15.77;8.90;;;;;;;10.57;100.00;100057.09;5590411;31;34060;-69
2023/10/24 01:50:51;;;;;;;14.15;9.02;;;;;;;10.49;100.00;100043.91;5590114;31;34706;-70
2023/10/24 01:53:55;;;;;;;15.98;8.93;;;;;;;10.46;100.00;100055.69;5590076;31;34189;-69
2023/10/24 01:56:57;;;;;;;12.50;8.88;;;;;;;10.44;100.00;100057.69;5589996;31;35507;-69
2023/10/24 02:00:00;;;;;;;15.10;8.52;;;;;;;10.40;100.00;100059.06;5590308;31;35013;-69
2023/10/24 02:03:13;;;;;;;17.73;9.18;;;;;;;10.37;100.00;100046.12;5590059;31;34155;-69
2023/10/24 02:06:17;;;;;;;12.60;8.55;;;;;;;10.32;100.00;100038.69;5589820;31;34441;-69
2023/10/24 02:09:20;;;;;;;15.27;8.20;;;;;;;10.28;100.00;100042.69;5589900;31;33969;-69
2023/10/24 02:12:24;;;;;;;17.77;8.63;;;;;;;10.24;100.00;100048.53;5589846;31;34043;-69
2023/10/24 02:15:26;;;;;;;13.02;8.38;;;;;;;10.21;100.00;100041.75;5589845;31;34068;-69
2023/10/24 02:18:29;;;;;;;13.82;8.77;;;;;;;10.26;100.00;100036.72;5590110;31;34110;-69
2023/10/24 02:21:32;;;;;;;15.48;8.27;;;;;;;10.33;100.00;100036.87;5589856;31;34099;-69
2023/10/24 02:24:36;;;;;;;17.90;8.32;;;;;;;10.45;100.00;100027.53;5589721;31;33991;-70
2023/10/24 02:27:38;;;;;;;15.60;8.13;;;;;;;10.50;100.00;100034.97;5589183;31;34771;-69
2023/10/24 02:30:42;;;;;;;16.40;7.55;;;;;;;10.48;100.00;100043.09;5589636;31;34156;-69
2023/10/24 02:33:44;;;;;;;11.18;7.25;;;;;;;10.44;100.00;100044.44;5589628;31;34305;-69
2023/10/24 02:36:47;;;;;;;12.23;7.25;;;;;;;10.42;100.00;100049.06;5589581;31;35043;-69
2023/10/24 02:39:50;;;;;;;12.95;7.70;;;;;;;10.49;100.00;100050.03;5589478;31;33971;-69
2023/10/24 02:42:53;;;;;;;11.27;7.87;;;;;;;10.56;100.00;100047.50;5589687;31;34719;-69
2023/10/24 02:45:57;;;;;;;11.73;7.05;;;;;;;10.48;100.00;100048.38;5589455;31;33949;-69
2023/10/24 02:49:00;;;;;;;11.63;6.93;;;;;;;10.41;100.00;100042.94;5589570;31;34316;-69
2023/10/24 02:52:04;;;;;;;11.70;7.32;;;;;;;10.40;100.00;100048.44;5589477;31;34015;-69
2023/10/24 02:55:08;;;;;;;11.85;7.20;;;;;;;10.41;100.00;100036.81;5589731;31;34017;-70
2023/10/24 02:58:11;;;;;;;14.70;7.47;;;;;;;10.45;100.00;100014.28;5589434;31;34079;-69
2023/10/24 03:01:14;;;;;;;11.07;7.43;;;;;;;10.44;100.00;100010.78;5589795;31;35088;-69
2023/10/24 03:04:17;;;;;;;12.35;7.30;;;;;;;10.44;100.00;100018.75;5589405;31;34308;-70
2023/10/24 03:07:23;;;;;;;11.65;6.40;;;;;;;10.43;100.00;100009.13;5589304;31;34274;-70
2023/10/24 03:10:26;;;;;;;12.07;6.78;;;;;;;10.43;100.00;99989.75;5589759;31;34125;-69
2023/10/24 03:13:29;;;;;;;8.60;6.05;;;;;;;10.45;100.00;99971.84;5589426;31;34147;-69
2023/10/24 03:16:33;;;;;;;10.55;6.62;;;;;;;10.50;100.00;99973.97;5589334;31;34799;-70
2023/10/24 03:19:36;;;;;;;11.68;6.50;;;;;;;10.52;100.00;99967.47;5589622;31;34057;-69
2023/10/24 03:22:40;;;;;;;11.75;6.12;;;;;;;10.48;100.00;99979.44;5589291;31;34283;-69
2023/10/24 03:25:43;;;;;;;11.38;6.50;;;;;;;10.43;100.00;99955.25;5589374;31;34983;-69
2023/10/24 03:28:46;;;;;;;12.07;6.55;;;;;;;10.41;100.00;99957.25;5589257;31;34127;-69
2023/10/24 03:31:50;;;;;;;8.55;6.45;;;;;;;10.36;100.00;99965.75;5589218;31;34107;-69
2023/10/24 03:34:53;;;;;;;11.82;6.62;;;;;;;10.28;100.00;99968.47;5589147;31;33967;-69
2023/10/24 03:37:56;;;;;;;10.98;6.82;;;;;;;10.23;100.00;99989.38;5588793;31;34976;-69
2023/10/24 03:40:58;;;;;;;12.70;7.00;;;;;;;10.20;100.00;100002.97;5589044;31;34088;-68
2023/10/24 03:44:01;;;;;;;10.98;6.82;;;;;;;10.13;100.00;99991.38;5589113;31;34108;-68
2023/10/24 03:47:04;;;;;;;11.52;6.72;;;;;;;10.08;100.00;99999.03;5588769;31;34102;-68
2023/10/24 03:50:07;;;;;;;13.32;7.35;;;;;;;10.04;100.00;99989.78;5588252;31;33963;-68
2023/10/24 03:53:10;;;;;;;12.37;7.00;;;;;;;9.97;100.00;99989.62;5588859;31;34096;-69
2023/10/24 03:56:13;;;;;;;11.70;7.45;;;;;;;9.91;100.00;99998.28;5588849;31;34117;-69
2023/10/24 03:59:16;;;;;;;16.55;7.43;;;;;;;9.84;100.00;100007.09;5588055;31;34776;-69
2023/10/24 04:02:19;;;;;;;12.68;7.22;;;;;;;9.87;100.00;99982.91;5588706;31;34687;-69
2023/10/24 04:05:22;;;;;;;12.95;7.40;;;;;;;9.84;100.00;99977.94;5588761;31;34623;-69
2023/10/24 04:08:25;;;;;;;14.00;10.00;;;;;;;9.78;100.00;99973.38;5588623;31;34269;-69
2023/10/24 04:11:28;;;;;;;15.98;10.57;;;;;;;9.80;100.00;99974.00;5588692;31;34098;-69
2023/10/24 04:14:33;;;;;;;15.32;10.77;;;;;;;9.77;100.00;99967.22;5588562;31;34114;-69
2023/10/24 04:17:36;;;;;;;18.77;11.12;;;;;;;9.72;100.00;99963.44;5588606;31;34074;-69
2023/10/24 04:20:41;;;;;;;12.73;9.50;;;;;;;9.67;100.00;99966.62;5588491;31;34736;-69
2023/10/24 04:23:44;;;;;;;12.55;8.65;;;;;;;9.64;100.00;99969.59;5588506;31;33961;-69
2023/10/24 04:26:47;;;;;;;14.35;8.95;;;;;;;9.59;100.00;99963.97;5588562;31;34040;-69
2023/10/24 04:29:50;;;;;;;14.13;8.57;;;;;;;9.57;100.00;99964.16;5588513;31;33999;-69
2023/10/24 04:32:53;;;;;;;12.57;8.45;;;;;;;9.60;100.00;99970.94;5588352;31;34924;-69
2023/10/24 04:35:56;;;;;;;14.68;8.00;;;;;;;9.62;100.00;99976.06;5588326;31;34110;-69
2023/10/24 04:38:59;;;;;;;13.77;8.20;;;;;;;9.60;100.00;99974.41;5588215;31;34257;-69
2023/10/24 04:42:02;;;;;;;14.32;8.32;;;;;;;9.55;100.00;99975.91;5588179;31;34757;-69
2023/10/24 04:45:07;;;;;;;15.95;8.80;;;;;;;9.50;100.00;99988.84;5581549;31;34103;-70
2023/10/24 04:48:10;;;;;;;15.15;8.45;;;;;;;9.47;100.00;100000.63;5582014;31;34016;-70
2023/10/24 04:51:13;;;;;;;13.38;8.77;;;;;;;9.45;100.00;99993.81;5590664;31;33844;-70
2023/10/24 04:54:16;;;;;;;11.85;8.13;;;;;;;9.41;100.00;99998.63;5590344;31;34689;-69
2023/10/24 04:57:19;;;;;;;12.35;8.43;;;;;;;9.39;100.00;99987.38;5590469;31;35118;-70
2023/10/24 05:00:22;;;;;;;16.05;8.27;;;;;;;9.38;100.00;99985.75;5590231;31;34693;-69
2023/10/24 05:03:25;;;;;;;15.68;8.38;;;;;;;9.60;100.00;99970.94;5590323;31;34262;-69
2023/10/24 05:06:28;;;;;;;14.43;8.32;;;;;;;9.67;100.00;99977.22;5590082;31;34019;-70
2023/10/24 05:09:30;;;;;;;15.07;8.52;;;;;;;9.58;100.00;99975.59;5589717;31;34970;-70
2023/10/24 05:12:34;;;;;;;15.23;8.75;;;;;;;9.50;100.00;99984.38;5589985;31;34055;-70
2023/10/24 05:15:36;;;;;;;17.15;8.45;;;;;;;9.47;100.00;99987.38;5590586;31;34027;-69
2023/10/24 05:18:40;;;;;;;15.40;8.68;;;;;;;9.42;100.00;99978.28;5590097;31;34242;-70
2023/10/24 05:21:42;;;;;;;13.35;8.40;;;;;;;9.44;100.00;99973.66;5589451;31;34530;-70
2023/10/24 05:24:45;;;;;;;13.32;8.65;;;;;;;9.44;100.00;99963.87;5590473;31;35214;-70
2023/10/24 05:27:48;;;;;;;14.75;8.23;;;;;;;9.42;100.00;99968.53;5590224;31;34091;-70
2023/10/24 05:30:51;;;;;;;14.95;7.80;;;;;;;9.42;100.00;99957.09;5589755;31;34667;-70
2023/10/24 05:33:54;;;;;;;11.68;7.95;;;;;;;9.42;100.00;99980.94;5589894;31;35014;-70
2023/10/24 05:36:57;;;;;;;15.68;7.93;;;;;;;9.41;100.00;99977.44;5589857;31;34202;-70
2023/10/24 05:40:00;;;;;;;17.65;7.78;;;;;;;9.41;100.00;99973.97;5589885;31;34181;-70
2023/10/24 05:43:04;;;;;;;13.23;7.78;;;;;;;9.42;100.00;99973.81;5589783;31;34707;-70
2023/10/24 05:46:07;;;;;;;11.35;7.62;;;;;;;9.45;100.00;99978.75;5589617;31;34172;-70
2023/10/24 05:49:10;;;;;;;15.63;7.95;;;;;;;9.51;100.00;99978.09;5589738;31;34838;-70
2023/10/24 05:52:13;;;;;;;13.50;8.05;;;;;;;9.55;100.00;99963.50;5588322;31;34081;-70
2023/10/24 05:55:17;;;;;;;14.38;8.40;;;;;;;9.62;100.00;99966.31;5589265;31;34268;-70
2023/10/24 05:58:21;;;;;;;12.50;7.78;;;;;;;9.73;100.00;99967.75;5589378;31;34669;-70
2023/10/24 06:01:24;;;;;;;15.25;9.50;;;;;;;9.85;100.00;99987.56;5588729;31;34017;-70
2023/10/24 06:04:27;;;;;;;15.07;7.43;;;;;;;9.90;100.00;99990.50;5589467;31;34085;-70
2023/10/24 06:07:30;;;;;;;16.92;7.90;;;;;;;10.01;100.00;99984.84;5589611;31;34098;-70
2023/10/24 06:10:33;;;;;;;12.37;7.93;;;;;;;10.17;100.00;99982.09;5589267;31;34344;-70
2023/10/24 06:13:36;;;;;;;14.82;7.60;;;;;;;10.17;100.00;99989.22;5589574;31;34829;-70
2023/10/24 06:16:39;;;;;;;12.88;7.87;;;;;;;10.23;100.00;99991.19;5589236;31;34715;-69
2023/10/24 06:19:42;;;;;;;11.82;7.37;;;;;;;10.23;100.00;99994.66;5589687;31;34059;-70
2023/10/24 06:22:45;;;;;;;15.30;7.50;;;;;;;10.39;100.00;100001.69;5589691;31;34102;-70
2023/10/24 06:25:48;;;;;;;14.35;7.53;;;;;;;10.41;100.00;99995.22;5589424;31;34885;-70
2023/10/24 06:28:51;;;;;;;13.98;7.80;;;;;;;10.45;100.00;99998.34;5589368;31;34103;-71
2023/10/24 06:31:54;;;;;;;10.85;7.18;;;;;;;10.51;100.00;99994.97;5589531;31;35076;-70
2023/10/24 06:34:57;;;;;;;13.23;7.15;;;;;;;10.60;100.00;99996.56;5589473;31;34320;-70
2023/10/24 06:38:00;;;;;;;17.15;7.55;;;;;;;10.57;100.00;99977.53;5588098;31;34227;-70
2023/10/24 06:41:08;;;;;;;13.30;7.28;;;;;;;10.78;100.00;99983.00;5589361;31;34229;-70
2023/10/24 06:44:11;;;;;;;17.48;7.45;;;;;;;10.86;100.00;99989.06;5589219;31;34039;-70
2023/10/24 06:47:14;;;;;;;13.95;7.12;;;;;;;11.03;100.00;99988.94;5589537;31;34696;-70
2023/10/24 06:50:16;;;;;;;11.07;6.78;;;;;;;11.09;100.00;99986.37;5589137;31;34225;-72
2023/10/24 06:53:19;;;;;;;15.75;7.20;;;;;;;11.31;100.00;99990.81;5589596;31;34410;-72
2023/10/24 06:56:22;;;;;;;14.05;7.00;;;;;;;11.41;100.00;99979.09;5589594;31;35558;-71
2023/10/24 06:59:25;;;;;;;14.13;7.03;;;;;;;11.52;100.00;99974.12;5589206;31;34106;-68
2023/10/24 07:02:31;;;;;;;13.68;7.12;;;;;;;11.68;100.00;99975.78;5589481;31;33894;-69
2023/10/24 07:05:34;;;;;;;12.68;6.85;;;;;;;11.83;100.00;99973.97;5589578;31;34027;-70
2023/10/24 07:08:37;;;;;;;12.40;6.82;;;;;;;11.91;100.00;99957.09;5589296;31;34836;-70
2023/10/24 07:11:40;;;;;;;17.62;7.40;;;;;;;11.80;100.00;99960.22;5588285;31;34437;-70
2023/10/24 07:14:42;;;;;;;18.75;7.43;;;;;;;11.71;100.00;99949.66;5589284;31;34258;-70
2023/10/24 07:17:45;;;;;;;16.10;7.70;;;;;;;11.70;100.00;99948.03;5589241;31;34217;-70
2023/10/24 07:20:48;;;;;;;9.68;7.30;;;;;;;11.62;100.00;99956.06;5589414;31;34192;-70
2023/10/24 07:23:51;;;;;;;11.93;7.35;;;;;;;11.83;100.00;99958.00;5589203;31;34136;-70
2023/10/24 07:26:54;;;;;;;11.80;7.18;;;;;;;12.05;100.00;99964.22;5589184;31;34069;-70
2023/10/24 07:29:57;;;;;;;12.95;7.00;;;;;;;12.06;100.00;99965.84;5589510;31;34250;-70
2023/10/24 07:33:00;;;;;;;13.43;6.95;;;;;;;12.19;100.00;99953.53;5589401;31;35078;-69
2023/10/24 07:36:07;;;;;;;11.75;6.97;;;;;;;12.52;100.00;99961.84;5588852;31;34709;-70
2023/10/24 07:39:10;;;;;;;16.95;7.07;;;;;;;12.71;100.00;99959.53;5588743;31;34039;-70
2023/10/24 07:42:14;;;;;;;13.15;6.20;;;;;;;13.08;100.00;99957.38;5588890;31;34333;-70
2023/10/24 07:45:17;;;;;;;12.45;6.22;;;;;;;14.05;100.00;99959.12;5584493;31;132137;-70
2023/10/24 07:48:20;;;;;;;12.30;6.00;;;;;;;14.61;100.00;99947.19;5588905;31;33930;-71
2023/10/24 07:51:25;;;;;;;14.57;5.95;;;;;;;15.00;100.00;99933.03;5588710;31;33999;-70
2023/10/24 07:54:29;;;;;;;13.10;6.03;;;;;;;15.26;100.00;99936.66;5589019;31;34000;-70
2023/10/24 07:57:31;;;;;;;12.57;6.22;;;;;;;15.23;100.00;99936.06;5588554;31;34117;-70
2023/10/24 08:00:34;;;;;;;11.85;6.25;;;;;;;15.08;100.00;99943.47;5588679;31;34027;-70
2023/10/24 08:03:38;;;;;;;11.48;6.65;;;;;;;14.78;100.00;99936.91;5588699;31;34946;-69
2023/10/24 08:06:40;;;;;;;15.10;6.95;;;;;;;14.49;100.00;99926.63;5588942;31;35108;-70
2023/10/24 08:09:43;;;;;;;13.60;7.10;;;;;;;14.87;100.00;99934.84;5588048;31;34314;-70
2023/10/24 08:12:46;;;;;;;18.17;6.85;;;;;;;15.25;100.00;99924.34;5588554;31;34903;-69
2023/10/24 08:15:52;;;;;;;11.75;6.53;;;;;;;15.33;100.00;99918.78;5588399;31;33990;-69
2023/10/24 08:18:57;;;;;;;16.50;6.97;;;;;;;15.55;100.00;99923.66;5588178;31;34137;-70
2023/10/24 08:22:00;;;;;;;10.95;6.85;;;;;;;15.37;100.00;99926.16;5588040;31;34103;-70
2023/10/24 08:25:04;;;;;;;14.35;7.35;;;;;;;15.05;100.00;99919.88;5586174;31;34116;-69
2023/10/24 08:28:07;;;;;;;17.08;7.82;;;;;;;15.01;100.00;99929.28;5587673;31;33988;-70
2023/10/24 08:31:10;;;;;;;15.73;7.30;;;;;;;14.79;100.00;99938.56;5587837;31;34002;-70
2023/10/24 08:34:13;;;;;;;17.00;7.45;;;;;;;14.82;100.00;99940.81;5587709;31;34720;-69
2023/10/24 08:37:16;;;;;;;14.87;7.85;;;;;;;14.85;100.00;99937.75;5587712;31;34187;-70
2023/10/24 08:40:19;;;;;;;13.18;7.55;;;;;;;14.94;100.00;99928.50;5587713;31;34770;-70
2023/10/24 08:43:22;;;;;;;13.95;7.15;;;;;;;15.01;100.00;99933.81;5586839;31;34305;-70
2023/10/24 08:46:25;;;;;;;13.90;7.57;;;;;;;15.38;100.00;99941.16;5587525;31;34827;-70
2023/10/24 08:49:29;;;;;;;18.15;7.93;;;;;;;15.45;100.00;99928.59;5587012;31;34090;-70
2023/10/24 08:52:33;;;;;;;12.30;8.07;;;;;;;15.42;100.00;99923.69;5587675;31;34869;-70
2023/10/24 08:55:38;;;;;;;14.40;7.75;;;;;;;15.80;100.00;99920.28;5586522;31;34718;-70
2023/10/24 08:58:45;;;;;;;16.02;7.72;;;;;;;15.82;100.00;99916.38;5586836;31;34036;-70
2023/10/24 09:01:49;;;;;;;17.80;7.78;;;;;;;15.83;100.00;99917.19;5587456;31;34198;-70
2023/10/24 09:04:53;;;;;;;17.65;7.20;;;;;;;15.65;100.00;99917.87;5586676;31;34217;-70
2023/10/24 09:07:57;;;;;;;17.75;7.35;;;;;;;15.93;100.00;99913.00;5587469;31;34131;-70
2023/10/24 09:11:00;;;;;;;17.02;7.30;;;;;;;15.87;100.00;99913.06;5587066;31;33998;-70
2023/10/24 09:14:02;;;;;;;18.00;8.10;;;;;;;15.76;100.00;99911.03;5586351;31;34618;-72
2023/10/24 09:17:05;;;;;;;19.65;7.53;;;;;;;15.69;100.00;99900.34;5587223;31;34064;-70
2023/10/24 09:20:08;;;;;;;17.35;8.10;;;;;;;15.76;100.00;99892.31;5586903;31;34042;-70
2023/10/24 09:23:12;;;;;;;18.42;7.85;;;;;;;15.48;100.00;99879.25;5586824;31;34730;-70
2023/10/24 09:26:14;;;;;;;16.67;8.35;;;;;;;15.89;100.00;99876.19;5586938;31;35038;-70
2023/10/24 09:29:18;;;;;;;18.73;8.55;;;;;;;16.28;100.00;99872.44;5586868;31;34718;-70
2023/10/24 09:32:21;;;;;;;15.30;7.60;;;;;;;16.48;100.00;99868.59;5586445;31;34087;-70
2023/10/24 09:35:24;;;;;;;20.92;7.93;;;;;;;16.73;100.00;99862.44;5587734;31;34051;-70
2023/10/24 09:38:29;;;;;;;15.77;8.07;;;;;;;16.93;100.00;99869.25;5589404;31;34198;-70
2023/10/24 09:41:32;;;;;;;19.67;8.05;;;;;;;17.01;100.00;99867.31;5589273;31;34810;-70
2023/10/24 09:44:35;;;;;;;17.52;7.85;;;;;;;16.98;100.00;99876.63;5586164;31;34941;-70
2023/10/24 09:47:40;;;;;;;17.75;7.72;;;;;;;16.95;100.00;99872.50;5586751;31;34151;-70
2023/10/24 09:50:50;;;;;;;18.83;8.25;;;;;;;17.17;100.00;99878.28;5589655;31;34085;-70
2023/10/24 09:53:53;;;;;;;14.48;7.70;;;;;;;16.93;100.00;99876.47;5589610;31;35075;-70
2023/10/24 09:56:56;;;;;;;13.98;7.43;;;;;;;17.24;100.00;99879.00;5589945;31;34049;-70
2023/10/24 09:59:59;;;;;;;19.12;7.10;;;;;;;17.34;100.00;99873.13;5588919;31;33974;-71
2023/10/24 10:03:04;;;;;;;14.45;6.80;;;;;;;17.36;100.00;99874.56;5588443;31;35118;-69
2023/10/24 10:06:09;;;;;;;13.48;7.05;;;;;;;17.77;100.00;99852.38;5589702;31;34116;-71
2023/10/24 10:09:15;;;;;;;16.02;6.40;;;;;;;18.38;100.00;99845.09;5588835;31;34071;-71
2023/10/24 10:12:18;;;;;;;14.82;6.25;;;;;;;18.26;100.00;99855.81;5589494;31;34009;-71
2023/10/24 10:15:43;;;;;;;12.57;5.97;;;;;;;18.69;100.00;99849.37;5588680;31;34963;-70
2023/10/24 10:19:34;;;;;;;14.85;6.28;;;;;;;18.82;100.00;99833.84;5589370;31;34179;-71
2023/10/24 10:22:58;;;;;;;16.33;5.97;;;;;;;18.65;100.00;99822.97;5512038;31;34306;-71
2023/10/24 10:26:07;;;;;;;17.73;6.03;;;;;;;18.42;100.00;99819.41;5589425;31;34172;-71
2023/10/24 10:29:37;;;;;;;18.52;5.70;;;;;;;18.89;100.00;99828.31;5589580;31;34449;-71
2023/10/24 10:32:58;;;;;;;15.95;5.45;;;;;;;18.93;100.00;99808.78;5588341;31;34033;-70
2023/10/24 10:36:12;;;;;;;16.55;5.30;;;;;;;18.86;100.00;99799.22;5589372;31;34725;-70
2023/10/24 10:39:15;;;;;;;15.68;5.50;;;;;;;18.64;100.00;99793.63;5590990;31;33953;-70
2023/10/24 10:42:48;;;;;;;14.35;5.70;;;;;;;18.56;100.00;99791.31;5589334;31;33989;-70
2023/10/24 10:45:51;;;;;;;13.13;5.95;;;;;;;18.89;100.00;99796.88;5588988;31;33833;-70
2023/10/24 10:49:03;;;;;;;13.82;5.50;;;;;;;19.12;100.00;99788.78;5589150;31;35277;-70
2023/10/24 10:52:43;;;;;;;14.27;5.10;;;;;;;18.98;100.00;99778.53;5589065;31;34105;-70
2023/10/24 10:55:52;;;;;;;16.08;5.15;;;;;;;18.97;100.00;99780.41;5524322;31;33901;-69
2023/10/24 10:59:11;;;;;;;12.87;5.40;;;;;;;19.63;100.00;99780.91;5589325;31;34106;-70
2023/10/24 11:02:38;;;;;;;13.62;3.35;;;;;;;20.07;100.00;99768.50;5588669;31;33984;-70
2023/10/24 11:05:45;;;;;;;12.25;3.90;;;;;;;19.90;100.00;99777.38;5589147;31;34103;-71
2023/10/24 11:09:06;;;;;;;13.80;2.70;;;;;;;19.49;100.00;99788.47;5588159;31;34753;-70
2023/10/24 11:12:21;;;;;;;5.05;2.15;;;;;;;19.39;100.00;99786.38;5589152;31;34229;-70
2023/10/24 11:15:24;;;;;;;10.00;2.62;;;;;;;19.14;100.00;99783.16;5589238;31;34674;-71
2023/10/24 11:18:29;;;;;;;11.52;2.40;;;;;;;18.70;100.00;99787.31;5589251;31;34061;-71
2023/10/24 11:21:33;;;;;;;10.60;2.30;;;;;;;18.36;100.00;99791.62;5588103;31;35017;-70
2023/10/24 11:24:36;;;;;;;13.05;2.67;;;;;;;18.54;100.00;99780.78;5589169;31;34035;-71
2023/10/24 11:27:40;;;;;;;9.50;2.58;;;;;;;18.63;100.00;99792.84;5589116;31;34136;-71
2023/10/24 11:30:43;;;;;;;13.68;2.80;;;;;;;18.48;100.00;99789.78;5589128;31;33522;-71
2023/10/24 11:33:46;;;;;;;11.65;2.83;;;;;;;18.61;100.00;99796.78;5589046;31;34123;-70
2023/10/24 11:36:51;;;;;;;13.27;2.60;;;;;;;18.65;100.00;99790.72;5589328;31;34059;-70
2023/10/24 11:39:53;;;;;;;10.18;2.50;;;;;;;18.37;100.00;99789.75;5588739;31;34178;-70
2023/10/24 11:43:07;;;;;;;14.55;3.08;;;;;;;18.50;100.00;99782.28;5588466;31;34208;-70
2023/10/24 11:46:10;;;;;;;8.05;2.62;;;;;;;18.57;100.00;99780.34;5588693;31;33970;-70
2023/10/24 11:49:13;;;;;;;9.52;2.53;;;;;;;18.93;100.00;99773.03;5588819;31;34223;-70
2023/10/24 11:52:16;;;;;;;9.00;2.37;;;;;;;18.84;100.00;99788.72;5588743;31;35028;-71
2023/10/24 11:55:19;;;;;;;14.13;3.12;;;;;;;18.64;100.00;99794.44;5588779;31;34180;-71
2023/10/24 11:58:23;;;;;;;10.90;2.37;;;;;;;18.60;100.00;99795.97;5588948;31;34082;-71
2023/10/24 12:01:31;;;;;;;11.18;3.00;;;;;;;18.46;100.00;99783.81;5588131;31;33969;-70
2023/10/24 12:04:34;;;;;;;15.00;3.03;;;;;;;18.64;100.00;99789.06;5588819;31;33934;-70
2023/10/24 12:07:37;;;;;;;15.73;2.72;;;;;;;18.60;100.00;99784.41;5587844;31;34728;-69
2023/10/24 12:10:52;;;;;;;11.68;2.42;;;;;;;18.38;100.00;99773.41;5587572;31;34039;-69
2023/10/24 12:13:55;;;;;;;13.65;3.05;;;;;;;18.09;100.00;99758.22;5588618;31;33959;-70
2023/10/24 12:16:58;;;;;;;12.57;2.55;;;;;;;18.14;100.00;99756.47;5588298;31;33987;-69
2023/10/24 12:20:02;;;;;;;13.68;3.20;;;;;;;18.05;100.00;99763.22;5587418;31;33934;-69
2023/10/24 12:23:06;;;;;;;9.55;2.65;;;;;;;18.03;100.00;99749.22;5587668;31;34283;-68
2023/10/24 12:26:08;;;;;;;11.55;2.80;;;;;;;18.03;100.00;99732.28;5587974;31;34074;-69
2023/10/24 12:29:11;;;;;;;16.10;2.87;;;;;;;18.06;100.00;99727.25;5588180;31;34694;-69
2023/10/24 12:32:14;;;;;;;7.43;2.37;;;;;;;18.09;100.00;99720.63;5588101;31;35068;-68
2023/10/24 12:35:19;;;;;;;9.40;2.50;;;;;;;18.14;100.00;99728.81;5588437;31;34027;-68
2023/10/24 12:38:21;;;;;;;11.75;2.62;;;;;;;18.12;100.00;99728.22;5587936;31;33999;-69
2023/10/24 12:41:25;;;;;;;8.57;2.55;;;;;;;18.07;100.00;99734.28;5587720;31;34098;-69
2023/10/24 12:44:27;;;;;;;9.57;2.60;;;;;;;18.03;100.00;99743.84;5588036;31;34076;-69
2023/10/24 12:47:31;;;;;;;13.80;2.87;;;;;;;18.06;100.00;99742.56;5587977;31;34430;-69
2023/10/24 12:50:34;;;;;;;13.15;2.87;;;;;;;18.13;100.00;99738.72;5587891;31;34642;-69
2023/10/24 12:53:37;;;;;;;9.88;2.30;;;;;;;18.02;100.00;99736.84;5587773;31;34204;-69
2023/10/24 12:56:43;;;;;;;12.23;2.67;;;;;;;17.98;100.00;99730.31;5587716;31;34692;-70
2023/10/24 12:59:46;;;;;;;11.35;3.15;;;;;;;18.05;100.00;99731.03;5586912;31;34421;-69
2023/10/24 13:02:49;;;;;;;9.40;2.83;;;;;;;18.03;100.00;99734.97;5587358;31;33986;-69
2023/10/24 13:05:52;;;;;;;17.05;3.10;;;;;;;17.93;100.00;99732.84;5587961;31;35147;-69
2023/10/24 13:08:55;;;;;;;11.48;2.87;;;;;;;17.79;100.00;99734.94;5587973;31;34093;-70
2023/10/24 13:11:59;;;;;;;12.50;2.80;;;;;;;17.85;100.00;99727.84;5589249;31;34446;-69
2023/10/24 13:15:04;;;;;;;10.85;2.78;;;;;;;17.86;100.00;99718.75;5589958;31;34062;-69
2023/10/24 13:18:08;;;;;;;14.35;4.60;;;;;;;17.80;100.00;99716.97;5589510;31;34094;-69
2023/10/24 13:21:10;;;;;;;11.98;5.40;;;;;;;17.62;100.00;99731.25;5589896;31;34108;-69
2023/10/24 13:24:14;;;;;;;17.62;5.53;;;;;;;17.39;100.00;99739.22;5589317;31;34995;-69
2023/10/24 13:27:16;;;;;;;15.40;6.12;;;;;;;17.07;100.00;99735.94;5589547;31;33948;-69
2023/10/24 13:30:19;;;;;;;20.80;6.60;;;;;;;16.78;100.00;99736.69;5589983;31;34081;-69
2023/10/24 13:33:43;;;;;;;16.12;6.55;;;;;;;16.66;100.00;99738.47;5589960;31;34104;-70
2023/10/24 13:37:06;;;;;;;22.20;7.53;;;;;;;16.51;100.00;99728.91;5590062;31;34147;-70
2023/10/24 13:40:09;;;;;;;15.98;7.62;;;;;;;16.47;100.00;99729.56;5590136;31;34110;-70
2023/10/24 13:43:12;;;;;;;22.10;7.62;;;;;;;16.45;100.00;99727.13;5589957;31;34240;-69
2023/10/24 13:46:15;;;;;;;23.80;7.95;;;;;;;16.34;100.00;99722.50;5590217;31;34396;-69
2023/10/24 13:49:18;;;;;;;21.05;7.28;;;;;;;16.24;100.00;99716.84;5590301;31;34135;-69
2023/10/24 13:52:20;;;;;;;20.65;8.27;;;;;;;16.01;100.00;99719.31;5590026;31;34036;-69
2023/10/24 13:55:23;;;;;;;22.42;8.05;;;;;;;15.69;100.00;99715.84;5589814;31;34951;-69
2023/10/24 13:58:26;;;;;;;21.60;8.10;;;;;;;15.62;100.00;99683.00;5588806;31;34656;-71
2023/10/24 14:01:30;;;;;;;23.70;8.38;;;;;;;15.28;100.00;99684.22;5589807;31;34090;-71
2023/10/24 14:04:32;;;;;;;19.25;8.82;;;;;;;14.96;100.00;99687.91;5590087;31;34304;-71
2023/10/24 14:07:35;;;;;;;21.35;8.43;;;;;;;14.72;100.00;99678.75;5589688;31;34158;-71